sensor_id;sensor_type;location;lat;lon;timestamp;P1;durP1;ratioP1;P2;durP2;ratioP2
11010;SDS011;5558;42.702;23.178;2022-09-09T00:00:12;7.40;;;6.63;;
11010;SDS011;5558;42.702;23.178;2022-09-09T00:02:40;7.93;;;7.13;;
11010;SDS011;5558;42.702;23.178;2022-09-09T00:05:14;7.43;;;6.53;;
11010;SDS011;5558;42.702;23.178;2022-09-09T00:07:48;7.03;;;6.43;;
11010;SDS011;5558;42.702;23.178;2022-09-09T00:10:20;7.40;;;6.70;;
11010;SDS011;5558;42.702;23.178;2022-09-09T00:12:53;6.90;;;6.30;;
11010;SDS011;5558;42.702;23.178;2022-09-09T00:15:25;7.23;;;6.50;;
11010;SDS011;5558;42.702;23.178;2022-09-09T00:17:58;6.90;;;6.20;;
11010;SDS011;5558;42.702;23.178;2022-09-09T00:20:31;7.03;;;6.40;;
11010;SDS011;5558;42.702;23.178;2022-09-09T00:23:03;6.97;;;6.33;;
11010;SDS011;5558;42.702;23.178;2022-09-09T00:25:42;7.93;;;6.27;;
11010;SDS011;5558;42.702;23.178;2022-09-09T00:28:17;7.40;;;6.70;;
11010;SDS011;5558;42.702;23.178;2022-09-09T00:30:46;6.87;;;6.17;;
11010;SDS011;5558;42.702;23.178;2022-09-09T00:33:15;6.83;;;6.23;;
11010;SDS011;5558;42.702;23.178;2022-09-09T00:35:47;7.10;;;6.50;;
11010;SDS011;5558;42.702;23.178;2022-09-09T00:38:16;6.43;;;5.93;;
11010;SDS011;5558;42.702;23.178;2022-09-09T00:40:51;6.47;;;5.87;;
11010;SDS011;5558;42.702;23.178;2022-09-09T00:43:28;7.40;;;6.80;;
11010;SDS011;5558;42.702;23.178;2022-09-09T00:46:06;7.03;;;6.33;;
11010;SDS011;5558;42.702;23.178;2022-09-09T00:48:51;6.90;;;6.30;;
11010;SDS011;5558;42.702;23.178;2022-09-09T00:51:26;6.97;;;6.30;;
11010;SDS011;5558;42.702;23.178;2022-09-09T00:54:06;7.47;;;6.77;;
11010;SDS011;5558;42.702;23.178;2022-09-09T00:56:53;6.70;;;6.10;;
11010;SDS011;5558;42.702;23.178;2022-09-09T00:59:32;6.90;;;6.30;;
11010;SDS011;5558;42.702;23.178;2022-09-09T01:02:07;7.60;;;6.83;;
11010;SDS011;5558;42.702;23.178;2022-09-09T01:04:42;7.20;;;6.60;;
11010;SDS011;5558;42.702;23.178;2022-09-09T01:07:11;7.20;;;6.60;;
11010;SDS011;5558;42.702;23.178;2022-09-09T01:09:45;7.03;;;6.43;;
11010;SDS011;5558;42.702;23.178;2022-09-09T01:12:25;7.10;;;6.50;;
11010;SDS011;5558;42.702;23.178;2022-09-09T01:14:57;7.80;;;7.00;;
11010;SDS011;5558;42.702;23.178;2022-09-09T01:17:32;7.03;;;6.40;;
11010;SDS011;5558;42.702;23.178;2022-09-09T01:20:06;7.33;;;6.63;;
11010;SDS011;5558;42.702;23.178;2022-09-09T01:22:40;7.23;;;6.63;;
11010;SDS011;5558;42.702;23.178;2022-09-09T01:28:30;7.00;;;6.40;;
11010;SDS011;5558;42.702;23.178;2022-09-09T01:31:00;7.63;;;6.93;;
11010;SDS011;5558;42.702;23.178;2022-09-09T01:33:29;8.23;;;7.13;;
11010;SDS011;5558;42.702;23.178;2022-09-09T01:35:57;7.70;;;6.90;;
11010;SDS011;5558;42.702;23.178;2022-09-09T01:38:29;7.33;;;6.60;;
11010;SDS011;5558;42.702;23.178;2022-09-09T01:40:59;7.60;;;6.90;;
11010;SDS011;5558;42.702;23.178;2022-09-09T01:43:25;7.93;;;7.13;;
11010;SDS011;5558;42.702;23.178;2022-09-09T01:45:54;7.83;;;7.13;;
11010;SDS011;5558;42.702;23.178;2022-09-09T01:48:22;9.20;;;8.40;;
11010;SDS011;5558;42.702;23.178;2022-09-09T01:50:50;8.20;;;7.40;;
11010;SDS011;5558;42.702;23.178;2022-09-09T01:53:18;8.17;;;7.47;;
11010;SDS011;5558;42.702;23.178;2022-09-09T01:55:49;8.33;;;7.63;;
11010;SDS011;5558;42.702;23.178;2022-09-09T01:58:27;8.30;;;7.50;;
11010;SDS011;5558;42.702;23.178;2022-09-09T02:01:02;8.77;;;7.97;;
11010;SDS011;5558;42.702;23.178;2022-09-09T02:03:34;8.73;;;7.83;;
11010;SDS011;5558;42.702;23.178;2022-09-09T02:06:04;8.83;;;8.03;;
11010;SDS011;5558;42.702;23.178;2022-09-09T02:08:40;8.57;;;7.77;;
11010;SDS011;5558;42.702;23.178;2022-09-09T02:11:11;8.60;;;7.80;;
11010;SDS011;5558;42.702;23.178;2022-09-09T02:13:42;8.80;;;7.97;;
11010;SDS011;5558;42.702;23.178;2022-09-09T02:16:11;8.47;;;7.60;;
11010;SDS011;5558;42.702;23.178;2022-09-09T02:18:44;8.03;;;7.23;;
11010;SDS011;5558;42.702;23.178;2022-09-09T02:21:17;7.97;;;7.27;;
11010;SDS011;5558;42.702;23.178;2022-09-09T02:23:44;8.77;;;7.87;;
11010;SDS011;5558;42.702;23.178;2022-09-09T02:26:17;8.17;;;7.37;;
11010;SDS011;5558;42.702;23.178;2022-09-09T02:28:48;8.03;;;7.23;;
11010;SDS011;5558;42.702;23.178;2022-09-09T02:31:17;8.67;;;7.87;;
11010;SDS011;5558;42.702;23.178;2022-09-09T02:33:49;9.10;;;8.30;;
11010;SDS011;5558;42.702;23.178;2022-09-09T02:36:19;8.73;;;7.93;;
11010;SDS011;5558;42.702;23.178;2022-09-09T02:38:50;8.33;;;7.53;;
11010;SDS011;5558;42.702;23.178;2022-09-09T02:41:19;8.83;;;8.03;;
11010;SDS011;5558;42.702;23.178;2022-09-09T02:43:50;9.40;;;8.50;;
11010;SDS011;5558;42.702;23.178;2022-09-09T02:46:26;9.90;;;9.00;;
11010;SDS011;5558;42.702;23.178;2022-09-09T02:49:03;9.10;;;8.30;;
11010;SDS011;5558;42.702;23.178;2022-09-09T02:51:37;8.13;;;7.43;;
11010;SDS011;5558;42.702;23.178;2022-09-09T02:54:14;9.60;;;8.70;;
11010;SDS011;5558;42.702;23.178;2022-09-09T02:56:48;8.90;;;8.10;;
11010;SDS011;5558;42.702;23.178;2022-09-09T02:59:20;8.57;;;7.77;;
11010;SDS011;5558;42.702;23.178;2022-09-09T03:01:49;9.23;;;8.43;;
11010;SDS011;5558;42.702;23.178;2022-09-09T03:04:15;9.60;;;8.70;;
11010;SDS011;5558;42.702;23.178;2022-09-09T03:06:42;9.27;;;8.33;;
11010;SDS011;5558;42.702;23.178;2022-09-09T03:09:09;9.57;;;8.60;;
11010;SDS011;5558;42.702;23.178;2022-09-09T03:11:36;8.93;;;8.13;;
11010;SDS011;5558;42.702;23.178;2022-09-09T03:14:03;8.87;;;8.07;;
11010;SDS011;5558;42.702;23.178;2022-09-09T03:16:32;9.20;;;8.33;;
11010;SDS011;5558;42.702;23.178;2022-09-09T03:18:59;9.77;;;8.77;;
11010;SDS011;5558;42.702;23.178;2022-09-09T03:21:26;9.77;;;8.87;;
11010;SDS011;5558;42.702;23.178;2022-09-09T03:23:53;9.47;;;8.63;;
11010;SDS011;5558;42.702;23.178;2022-09-09T03:26:20;10.13;;;9.23;;
11010;SDS011;5558;42.702;23.178;2022-09-09T03:28:48;10.50;;;9.50;;
11010;SDS011;5558;42.702;23.178;2022-09-09T03:31:14;9.63;;;8.77;;
11010;SDS011;5558;42.702;23.178;2022-09-09T03:33:43;9.70;;;8.80;;
11010;SDS011;5558;42.702;23.178;2022-09-09T03:36:10;9.57;;;8.53;;
11010;SDS011;5558;42.702;23.178;2022-09-09T03:38:36;9.27;;;8.47;;
11010;SDS011;5558;42.702;23.178;2022-09-09T03:41:03;9.20;;;8.40;;
11010;SDS011;5558;42.702;23.178;2022-09-09T03:43:32;9.63;;;8.63;;
11010;SDS011;5558;42.702;23.178;2022-09-09T03:46:00;9.30;;;8.43;;
11010;SDS011;5558;42.702;23.178;2022-09-09T03:48:27;11.43;;;9.50;;
11010;SDS011;5558;42.702;23.178;2022-09-09T03:50:55;9.93;;;8.93;;
11010;SDS011;5558;42.702;23.178;2022-09-09T03:53:25;10.10;;;9.10;;
11010;SDS011;5558;42.702;23.178;2022-09-09T03:55:54;10.67;;;8.97;;
11010;SDS011;5558;42.702;23.178;2022-09-09T03:58:25;9.37;;;8.47;;
11010;SDS011;5558;42.702;23.178;2022-09-09T04:00:53;10.07;;;9.07;;
11010;SDS011;5558;42.702;23.178;2022-09-09T04:03:21;9.57;;;8.67;;
11010;SDS011;5558;42.702;23.178;2022-09-09T04:05:49;10.20;;;8.33;;
11010;SDS011;5558;42.702;23.178;2022-09-09T04:08:18;10.43;;;9.33;;
11010;SDS011;5558;42.702;23.178;2022-09-09T04:10:44;10.20;;;9.10;;
11010;SDS011;5558;42.702;23.178;2022-09-09T04:13:12;10.50;;;9.50;;
11010;SDS011;5558;42.702;23.178;2022-09-09T04:15:41;10.73;;;9.73;;
11010;SDS011;5558;42.702;23.178;2022-09-09T04:18:08;10.30;;;9.40;;
11010;SDS011;5558;42.702;23.178;2022-09-09T04:20:35;9.80;;;8.80;;
11010;SDS011;5558;42.702;23.178;2022-09-09T04:23:02;9.97;;;9.07;;
11010;SDS011;5558;42.702;23.178;2022-09-09T04:25:31;10.47;;;8.47;;
11010;SDS011;5558;42.702;23.178;2022-09-09T04:27:58;9.20;;;8.17;;
11010;SDS011;5558;42.702;23.178;2022-09-09T04:30:25;8.80;;;7.90;;
11010;SDS011;5558;42.702;23.178;2022-09-09T04:32:52;8.53;;;7.73;;
11010;SDS011;5558;42.702;23.178;2022-09-09T04:35:19;8.57;;;7.77;;
11010;SDS011;5558;42.702;23.178;2022-09-09T04:37:46;8.70;;;7.80;;
11010;SDS011;5558;42.702;23.178;2022-09-09T04:40:13;8.37;;;7.10;;
11010;SDS011;5558;42.702;23.178;2022-09-09T04:42:41;7.73;;;6.93;;
11010;SDS011;5558;42.702;23.178;2022-09-09T04:45:09;7.80;;;6.73;;
11010;SDS011;5558;42.702;23.178;2022-09-09T04:47:38;8.17;;;7.27;;
11010;SDS011;5558;42.702;23.178;2022-09-09T04:50:06;7.70;;;6.33;;
11010;SDS011;5558;42.702;23.178;2022-09-09T04:52:33;7.97;;;6.63;;
11010;SDS011;5558;42.702;23.178;2022-09-09T04:55:01;7.20;;;6.00;;
11010;SDS011;5558;42.702;23.178;2022-09-09T04:57:27;6.67;;;6.00;;
11010;SDS011;5558;42.702;23.178;2022-09-09T04:59:58;6.50;;;5.60;;
11010;SDS011;5558;42.702;23.178;2022-09-09T05:02:25;6.77;;;5.50;;
11010;SDS011;5558;42.702;23.178;2022-09-09T05:04:51;5.87;;;5.37;;
11010;SDS011;5558;42.702;23.178;2022-09-09T05:07:19;6.87;;;5.33;;
11010;SDS011;5558;42.702;23.178;2022-09-09T05:09:45;6.17;;;5.13;;
11010;SDS011;5558;42.702;23.178;2022-09-09T05:12:14;6.20;;;5.60;;
11010;SDS011;5558;42.702;23.178;2022-09-09T05:14:41;6.00;;;5.40;;
11010;SDS011;5558;42.702;23.178;2022-09-09T05:17:10;7.20;;;6.00;;
11010;SDS011;5558;42.702;23.178;2022-09-09T05:19:38;8.20;;;5.20;;
11010;SDS011;5558;42.702;23.178;2022-09-09T05:22:04;5.73;;;5.13;;
11010;SDS011;5558;42.702;23.178;2022-09-09T05:24:32;6.13;;;5.50;;
11010;SDS011;5558;42.702;23.178;2022-09-09T05:26:59;7.17;;;5.17;;
11010;SDS011;5558;42.702;23.178;2022-09-09T05:29:27;5.53;;;4.97;;
11010;SDS011;5558;42.702;23.178;2022-09-09T05:31:54;6.10;;;5.13;;
11010;SDS011;5558;42.702;23.178;2022-09-09T05:34:22;5.07;;;4.57;;
11010;SDS011;5558;42.702;23.178;2022-09-09T05:36:49;5.73;;;4.83;;
11010;SDS011;5558;42.702;23.178;2022-09-09T05:39:16;5.23;;;4.73;;
11010;SDS011;5558;42.702;23.178;2022-09-09T05:41:43;5.20;;;4.70;;
11010;SDS011;5558;42.702;23.178;2022-09-09T05:44:10;4.93;;;4.50;;
11010;SDS011;5558;42.702;23.178;2022-09-09T05:46:36;6.17;;;5.40;;
11010;SDS011;5558;42.702;23.178;2022-09-09T05:49:03;5.43;;;5.03;;
11010;SDS011;5558;42.702;23.178;2022-09-09T05:51:32;5.57;;;5.07;;
11010;SDS011;5558;42.702;23.178;2022-09-09T05:53:59;5.57;;;4.60;;
11010;SDS011;5558;42.702;23.178;2022-09-09T05:56:26;5.30;;;4.80;;
11010;SDS011;5558;42.702;23.178;2022-09-09T05:58:55;5.73;;;5.17;;
11010;SDS011;5558;42.702;23.178;2022-09-09T06:01:23;5.53;;;5.03;;
11010;SDS011;5558;42.702;23.178;2022-09-09T06:03:51;7.67;;;5.50;;
11010;SDS011;5558;42.702;23.178;2022-09-09T06:06:18;5.80;;;5.30;;
11010;SDS011;5558;42.702;23.178;2022-09-09T06:08:49;6.83;;;5.27;;
11010;SDS011;5558;42.702;23.178;2022-09-09T06:11:18;6.73;;;5.10;;
11010;SDS011;5558;42.702;23.178;2022-09-09T06:13:46;7.03;;;4.90;;
11010;SDS011;5558;42.702;23.178;2022-09-09T06:16:16;5.30;;;4.80;;
11010;SDS011;5558;42.702;23.178;2022-09-09T06:18:44;5.60;;;5.10;;
11010;SDS011;5558;42.702;23.178;2022-09-09T06:21:15;5.40;;;4.90;;
11010;SDS011;5558;42.702;23.178;2022-09-09T06:23:43;5.80;;;5.20;;
11010;SDS011;5558;42.702;23.178;2022-09-09T06:26:12;5.40;;;4.90;;
11010;SDS011;5558;42.702;23.178;2022-09-09T06:28:42;5.33;;;4.83;;
11010;SDS011;5558;42.702;23.178;2022-09-09T06:31:09;5.90;;;5.30;;
11010;SDS011;5558;42.702;23.178;2022-09-09T06:33:38;5.33;;;4.83;;
11010;SDS011;5558;42.702;23.178;2022-09-09T06:36:07;5.50;;;5.00;;
11010;SDS011;5558;42.702;23.178;2022-09-09T06:38:36;5.57;;;5.07;;
11010;SDS011;5558;42.702;23.178;2022-09-09T06:41:04;5.53;;;5.00;;
11010;SDS011;5558;42.702;23.178;2022-09-09T06:43:33;7.37;;;5.17;;
11010;SDS011;5558;42.702;23.178;2022-09-09T06:46:00;6.33;;;4.77;;
11010;SDS011;5558;42.702;23.178;2022-09-09T06:48:28;5.20;;;4.80;;
11010;SDS011;5558;42.702;23.178;2022-09-09T06:51:05;5.60;;;4.63;;
11010;SDS011;5558;42.702;23.178;2022-09-09T06:53:33;5.53;;;5.03;;
11010;SDS011;5558;42.702;23.178;2022-09-09T06:56:02;7.97;;;4.57;;
11010;SDS011;5558;42.702;23.178;2022-09-09T06:58:44;5.23;;;4.73;;
11010;SDS011;5558;42.702;23.178;2022-09-09T07:01:12;7.37;;;4.80;;
11010;SDS011;5558;42.702;23.178;2022-09-09T07:03:40;5.97;;;4.60;;
11010;SDS011;5558;42.702;23.178;2022-09-09T07:06:08;6.00;;;4.80;;
11010;SDS011;5558;42.702;23.178;2022-09-09T07:08:40;6.43;;;4.53;;
11010;SDS011;5558;42.702;23.178;2022-09-09T07:11:07;5.93;;;4.83;;
11010;SDS011;5558;42.702;23.178;2022-09-09T07:13:34;5.33;;;4.77;;
11010;SDS011;5558;42.702;23.178;2022-09-09T07:16:04;5.20;;;4.70;;
11010;SDS011;5558;42.702;23.178;2022-09-09T07:18:32;4.97;;;4.57;;
11010;SDS011;5558;42.702;23.178;2022-09-09T07:20:59;5.40;;;4.90;;
11010;SDS011;5558;42.702;23.178;2022-09-09T07:23:27;5.20;;;4.70;;
11010;SDS011;5558;42.702;23.178;2022-09-09T07:25:54;5.40;;;4.90;;
11010;SDS011;5558;42.702;23.178;2022-09-09T07:28:21;5.13;;;4.73;;
11010;SDS011;5558;42.702;23.178;2022-09-09T07:30:55;6.57;;;4.83;;
11010;SDS011;5558;42.702;23.178;2022-09-09T07:33:24;5.30;;;4.80;;
11010;SDS011;5558;42.702;23.178;2022-09-09T07:35:52;7.00;;;5.10;;
11010;SDS011;5558;42.702;23.178;2022-09-09T07:38:19;7.33;;;5.20;;
11010;SDS011;5558;42.702;23.178;2022-09-09T07:40:47;5.70;;;4.97;;
11010;SDS011;5558;42.702;23.178;2022-09-09T07:43:14;5.60;;;5.07;;
11010;SDS011;5558;42.702;23.178;2022-09-09T07:45:42;6.10;;;5.47;;
11010;SDS011;5558;42.702;23.178;2022-09-09T07:48:09;5.77;;;5.27;;
11010;SDS011;5558;42.702;23.178;2022-09-09T07:50:37;5.93;;;5.03;;
11010;SDS011;5558;42.702;23.178;2022-09-09T07:53:04;7.57;;;5.30;;
11010;SDS011;5558;42.702;23.178;2022-09-09T07:55:31;6.03;;;5.33;;
11010;SDS011;5558;42.702;23.178;2022-09-09T07:57:58;5.70;;;5.17;;
11010;SDS011;5558;42.702;23.178;2022-09-09T08:00:25;5.80;;;5.30;;
11010;SDS011;5558;42.702;23.178;2022-09-09T08:02:53;6.20;;;5.17;;
11010;SDS011;5558;42.702;23.178;2022-09-09T08:05:20;7.00;;;5.17;;
11010;SDS011;5558;42.702;23.178;2022-09-09T08:07:49;6.53;;;5.20;;
11010;SDS011;5558;42.702;23.178;2022-09-09T08:10:15;5.90;;;5.30;;
11010;SDS011;5558;42.702;23.178;2022-09-09T08:12:43;6.43;;;5.80;;
11010;SDS011;5558;42.702;23.178;2022-09-09T08:15:10;6.37;;;5.27;;
11010;SDS011;5558;42.702;23.178;2022-09-09T08:17:37;6.07;;;5.47;;
11010;SDS011;5558;42.702;23.178;2022-09-09T08:20:04;7.03;;;5.63;;
11010;SDS011;5558;42.702;23.178;2022-09-09T08:22:31;8.00;;;5.50;;
11010;SDS011;5558;42.702;23.178;2022-09-09T08:24:59;6.13;;;5.50;;
11010;SDS011;5558;42.702;23.178;2022-09-09T08:27:27;6.07;;;5.47;;
11010;SDS011;5558;42.702;23.178;2022-09-09T08:29:53;6.97;;;6.27;;
11010;SDS011;5558;42.702;23.178;2022-09-09T08:32:21;6.70;;;5.37;;
11010;SDS011;5558;42.702;23.178;2022-09-09T08:34:48;8.13;;;5.20;;
11010;SDS011;5558;42.702;23.178;2022-09-09T08:37:16;6.97;;;6.20;;
11010;SDS011;5558;42.702;23.178;2022-09-09T08:39:42;7.60;;;5.70;;
11010;SDS011;5558;42.702;23.178;2022-09-09T08:42:28;7.47;;;5.67;;
11010;SDS011;5558;42.702;23.178;2022-09-09T08:45:09;6.87;;;5.63;;
11010;SDS011;5558;42.702;23.178;2022-09-09T08:47:47;6.63;;;5.93;;
11010;SDS011;5558;42.702;23.178;2022-09-09T08:50:21;6.90;;;6.20;;
11010;SDS011;5558;42.702;23.178;2022-09-09T08:52:54;6.77;;;6.00;;
11010;SDS011;5558;42.702;23.178;2022-09-09T08:55:27;7.40;;;5.93;;
11010;SDS011;5558;42.702;23.178;2022-09-09T08:58:04;7.80;;;6.50;;
11010;SDS011;5558;42.702;23.178;2022-09-09T09:00:40;6.93;;;6.17;;
11010;SDS011;5558;42.702;23.178;2022-09-09T09:03:15;8.27;;;6.20;;
11010;SDS011;5558;42.702;23.178;2022-09-09T09:05:52;8.07;;;5.80;;
11010;SDS011;5558;42.702;23.178;2022-09-09T09:08:28;8.93;;;6.80;;
11010;SDS011;5558;42.702;23.178;2022-09-09T09:11:03;9.10;;;6.50;;
11010;SDS011;5558;42.702;23.178;2022-09-09T09:13:33;8.40;;;6.60;;
11010;SDS011;5558;42.702;23.178;2022-09-09T09:16:09;8.50;;;5.77;;
11010;SDS011;5558;42.702;23.178;2022-09-09T09:18:43;6.73;;;6.03;;
11010;SDS011;5558;42.702;23.178;2022-09-09T09:21:11;7.17;;;5.83;;
11010;SDS011;5558;42.702;23.178;2022-09-09T09:23:45;10.07;;;6.67;;
11010;SDS011;5558;42.702;23.178;2022-09-09T09:26:20;6.50;;;5.90;;
11010;SDS011;5558;42.702;23.178;2022-09-09T09:28:52;8.17;;;6.13;;
11010;SDS011;5558;42.702;23.178;2022-09-09T09:31:22;7.60;;;6.07;;
11010;SDS011;5558;42.702;23.178;2022-09-09T09:33:52;8.80;;;5.57;;
11010;SDS011;5558;42.702;23.178;2022-09-09T09:36:20;7.03;;;5.73;;
11010;SDS011;5558;42.702;23.178;2022-09-09T09:38:52;6.43;;;5.83;;
11010;SDS011;5558;42.702;23.178;2022-09-09T09:41:31;6.40;;;5.60;;
11010;SDS011;5558;42.702;23.178;2022-09-09T09:44:02;9.93;;;6.00;;
11010;SDS011;5558;42.702;23.178;2022-09-09T09:46:29;8.00;;;6.10;;
11010;SDS011;5558;42.702;23.178;2022-09-09T09:48:57;8.97;;;5.80;;
11010;SDS011;5558;42.702;23.178;2022-09-09T09:51:25;6.40;;;5.53;;
11010;SDS011;5558;42.702;23.178;2022-09-09T09:53:53;6.07;;;5.47;;
11010;SDS011;5558;42.702;23.178;2022-09-09T09:56:26;5.90;;;5.30;;
11010;SDS011;5558;42.702;23.178;2022-09-09T09:58:54;7.27;;;5.53;;
11010;SDS011;5558;42.702;23.178;2022-09-09T10:01:24;6.20;;;5.60;;
11010;SDS011;5558;42.702;23.178;2022-09-09T10:03:53;7.07;;;5.47;;
11010;SDS011;5558;42.702;23.178;2022-09-09T10:11:48;7.37;;;5.30;;
11010;SDS011;5558;42.702;23.178;2022-09-09T10:14:23;8.27;;;5.93;;
11010;SDS011;5558;42.702;23.178;2022-09-09T10:17:01;6.77;;;5.30;;
11010;SDS011;5558;42.702;23.178;2022-09-09T10:19:36;9.97;;;6.10;;
11010;SDS011;5558;42.702;23.178;2022-09-09T10:22:14;8.30;;;6.10;;
11010;SDS011;5558;42.702;23.178;2022-09-09T10:24:58;6.30;;;5.70;;
11010;SDS011;5558;42.702;23.178;2022-09-09T10:27:43;7.13;;;5.90;;
11010;SDS011;5558;42.702;23.178;2022-09-09T10:30:19;6.03;;;5.27;;
11010;SDS011;5558;42.702;23.178;2022-09-09T10:32:52;7.07;;;6.27;;
11010;SDS011;5558;42.702;23.178;2022-09-09T10:35:29;8.90;;;6.77;;
11010;SDS011;5558;42.702;23.178;2022-09-09T10:38:05;6.60;;;5.80;;
11010;SDS011;5558;42.702;23.178;2022-09-09T10:40:42;7.30;;;6.27;;
11010;SDS011;5558;42.702;23.178;2022-09-09T10:43:19;8.30;;;5.93;;
11010;SDS011;5558;42.702;23.178;2022-09-09T10:46:00;7.13;;;5.80;;
11010;SDS011;5558;42.702;23.178;2022-09-09T10:48:42;6.53;;;5.70;;
11010;SDS011;5558;42.702;23.178;2022-09-09T10:51:23;7.50;;;5.67;;
11010;SDS011;5558;42.702;23.178;2022-09-09T10:54:06;6.97;;;5.37;;
11010;SDS011;5558;42.702;23.178;2022-09-09T10:56:44;6.83;;;5.10;;
11010;SDS011;5558;42.702;23.178;2022-09-09T10:59:16;6.30;;;5.27;;
11010;SDS011;5558;42.702;23.178;2022-09-09T11:01:49;8.43;;;5.20;;
11010;SDS011;5558;42.702;23.178;2022-09-09T11:04:22;5.37;;;4.87;;
11010;SDS011;5558;42.702;23.178;2022-09-09T11:06:54;7.13;;;5.10;;
11010;SDS011;5558;42.702;23.178;2022-09-09T11:09:23;5.73;;;5.00;;
11010;SDS011;5558;42.702;23.178;2022-09-09T11:11:53;5.80;;;5.20;;
11010;SDS011;5558;42.702;23.178;2022-09-09T11:14:23;7.77;;;5.70;;
11010;SDS011;5558;42.702;23.178;2022-09-09T11:16:57;5.63;;;5.13;;
11010;SDS011;5558;42.702;23.178;2022-09-09T11:19:28;6.67;;;5.40;;
11010;SDS011;5558;42.702;23.178;2022-09-09T11:22:00;5.40;;;4.90;;
11010;SDS011;5558;42.702;23.178;2022-09-09T11:24:29;6.20;;;5.20;;
11010;SDS011;5558;42.702;23.178;2022-09-09T11:27:03;5.53;;;5.00;;
11010;SDS011;5558;42.702;23.178;2022-09-09T11:29:52;7.00;;;5.20;;
11010;SDS011;5558;42.702;23.178;2022-09-09T11:32:47;6.10;;;5.20;;
11010;SDS011;5558;42.702;23.178;2022-09-09T11:35:31;7.17;;;5.10;;
11010;SDS011;5558;42.702;23.178;2022-09-09T11:38:12;8.37;;;5.23;;
11010;SDS011;5558;42.702;23.178;2022-09-09T11:40:44;6.03;;;5.13;;
11010;SDS011;5558;42.702;23.178;2022-09-09T11:43:13;7.03;;;5.20;;
11010;SDS011;5558;42.702;23.178;2022-09-09T11:45:49;5.93;;;5.33;;
11010;SDS011;5558;42.702;23.178;2022-09-09T11:48:25;5.70;;;5.13;;
11010;SDS011;5558;42.702;23.178;2022-09-09T11:51:01;8.43;;;5.10;;
11010;SDS011;5558;42.702;23.178;2022-09-09T11:53:32;9.27;;;5.50;;
11010;SDS011;5558;42.702;23.178;2022-09-09T11:56:00;6.13;;;5.20;;
11010;SDS011;5558;42.702;23.178;2022-09-09T11:58:32;5.67;;;4.90;;
11010;SDS011;5558;42.702;23.178;2022-09-09T12:01:12;6.80;;;4.87;;
11010;SDS011;5558;42.702;23.178;2022-09-09T12:03:41;6.07;;;5.20;;
11010;SDS011;5558;42.702;23.178;2022-09-09T12:06:13;6.13;;;4.83;;
11010;SDS011;5558;42.702;23.178;2022-09-09T12:08:46;7.10;;;5.33;;
11010;SDS011;5558;42.702;23.178;2022-09-09T12:11:23;6.53;;;5.10;;
11010;SDS011;5558;42.702;23.178;2022-09-09T12:13:54;6.70;;;5.07;;
11010;SDS011;5558;42.702;23.178;2022-09-09T12:16:29;6.13;;;5.37;;
11010;SDS011;5558;42.702;23.178;2022-09-09T12:19:07;6.93;;;5.50;;
11010;SDS011;5558;42.702;23.178;2022-09-09T12:21:44;6.73;;;4.90;;
11010;SDS011;5558;42.702;23.178;2022-09-09T12:24:16;5.53;;;5.00;;
11010;SDS011;5558;42.702;23.178;2022-09-09T12:26:50;8.10;;;5.10;;
11010;SDS011;5558;42.702;23.178;2022-09-09T12:29:24;7.47;;;5.03;;
11010;SDS011;5558;42.702;23.178;2022-09-09T12:31:59;8.53;;;5.00;;
11010;SDS011;5558;42.702;23.178;2022-09-09T12:34:34;8.43;;;5.07;;
11010;SDS011;5558;42.702;23.178;2022-09-09T12:37:06;5.60;;;5.00;;
11010;SDS011;5558;42.702;23.178;2022-09-09T12:39:44;5.43;;;4.80;;
11010;SDS011;5558;42.702;23.178;2022-09-09T12:42:17;6.07;;;4.70;;
11010;SDS011;5558;42.702;23.178;2022-09-09T12:44:51;6.53;;;4.73;;
11010;SDS011;5558;42.702;23.178;2022-09-09T12:47:18;7.17;;;4.60;;
11010;SDS011;5558;42.702;23.178;2022-09-09T12:49:48;6.10;;;4.63;;
11010;SDS011;5558;42.702;23.178;2022-09-09T12:52:19;5.23;;;4.63;;
11010;SDS011;5558;42.702;23.178;2022-09-09T12:54:51;5.63;;;4.57;;
11010;SDS011;5558;42.702;23.178;2022-09-09T12:57:19;5.30;;;4.37;;
11010;SDS011;5558;42.702;23.178;2022-09-09T12:59:49;6.23;;;4.40;;
11010;SDS011;5558;42.702;23.178;2022-09-09T13:02:18;7.57;;;4.50;;
11010;SDS011;5558;42.702;23.178;2022-09-09T13:04:46;5.40;;;4.27;;
11010;SDS011;5558;42.702;23.178;2022-09-09T13:07:16;7.33;;;4.50;;
11010;SDS011;5558;42.702;23.178;2022-09-09T13:09:45;5.87;;;4.23;;
11010;SDS011;5558;42.702;23.178;2022-09-09T13:12:13;5.47;;;4.40;;
11010;SDS011;5558;42.702;23.178;2022-09-09T13:14:43;7.67;;;4.63;;
11010;SDS011;5558;42.702;23.178;2022-09-09T13:17:18;11.60;;;4.63;;
11010;SDS011;5558;42.702;23.178;2022-09-09T13:19:47;6.13;;;4.33;;
11010;SDS011;5558;42.702;23.178;2022-09-09T13:22:21;6.40;;;4.43;;
11010;SDS011;5558;42.702;23.178;2022-09-09T13:24:58;5.90;;;4.33;;
11010;SDS011;5558;42.702;23.178;2022-09-09T13:27:29;7.57;;;4.40;;
11010;SDS011;5558;42.702;23.178;2022-09-09T13:29:57;6.27;;;4.50;;
11010;SDS011;5558;42.702;23.178;2022-09-09T13:32:24;6.07;;;4.43;;
11010;SDS011;5558;42.702;23.178;2022-09-09T13:34:53;6.80;;;4.57;;
11010;SDS011;5558;42.702;23.178;2022-09-09T13:37:23;5.97;;;4.70;;
11010;SDS011;5558;42.702;23.178;2022-09-09T13:39:58;5.63;;;4.57;;
11010;SDS011;5558;42.702;23.178;2022-09-09T13:42:26;7.53;;;4.90;;
11010;SDS011;5558;42.702;23.178;2022-09-09T13:44:54;6.63;;;4.50;;
11010;SDS011;5558;42.702;23.178;2022-09-09T13:47:26;7.83;;;4.83;;
11010;SDS011;5558;42.702;23.178;2022-09-09T13:49:56;4.83;;;3.93;;
11010;SDS011;5558;42.702;23.178;2022-09-09T13:52:24;5.87;;;4.20;;
11010;SDS011;5558;42.702;23.178;2022-09-09T13:54:55;6.67;;;4.57;;
11010;SDS011;5558;42.702;23.178;2022-09-09T13:57:23;5.33;;;4.40;;
11010;SDS011;5558;42.702;23.178;2022-09-09T13:59:52;6.37;;;3.93;;
11010;SDS011;5558;42.702;23.178;2022-09-09T14:02:20;6.80;;;4.00;;
11010;SDS011;5558;42.702;23.178;2022-09-09T14:04:48;6.37;;;4.20;;
11010;SDS011;5558;42.702;23.178;2022-09-09T14:07:16;4.70;;;3.67;;
11010;SDS011;5558;42.702;23.178;2022-09-09T14:09:45;5.57;;;3.80;;
11010;SDS011;5558;42.702;23.178;2022-09-09T14:12:15;6.40;;;4.00;;
11010;SDS011;5558;42.702;23.178;2022-09-09T14:14:42;5.80;;;4.00;;
11010;SDS011;5558;42.702;23.178;2022-09-09T14:17:10;5.10;;;4.00;;
11010;SDS011;5558;42.702;23.178;2022-09-09T14:19:36;6.83;;;4.00;;
11010;SDS011;5558;42.702;23.178;2022-09-09T14:22:03;5.03;;;4.00;;
11010;SDS011;5558;42.702;23.178;2022-09-09T14:24:30;4.33;;;3.80;;
11010;SDS011;5558;42.702;23.178;2022-09-09T14:26:59;4.57;;;4.17;;
11010;SDS011;5558;42.702;23.178;2022-09-09T14:29:26;6.37;;;4.27;;
11010;SDS011;5558;42.702;23.178;2022-09-09T14:31:53;4.67;;;4.20;;
11010;SDS011;5558;42.702;23.178;2022-09-09T14:34:19;5.70;;;4.20;;
11010;SDS011;5558;42.702;23.178;2022-09-09T14:36:46;4.50;;;4.10;;
11010;SDS011;5558;42.702;23.178;2022-09-09T14:39:13;6.33;;;4.33;;
11010;SDS011;5558;42.702;23.178;2022-09-09T14:41:40;6.17;;;3.90;;
11010;SDS011;5558;42.702;23.178;2022-09-09T14:44:08;4.37;;;3.97;;
11010;SDS011;5558;42.702;23.178;2022-09-09T14:46:36;6.37;;;4.20;;
11010;SDS011;5558;42.702;23.178;2022-09-09T14:49:07;4.47;;;4.00;;
11010;SDS011;5558;42.702;23.178;2022-09-09T14:51:35;6.43;;;4.47;;
11010;SDS011;5558;42.702;23.178;2022-09-09T14:54:02;4.53;;;3.90;;
11010;SDS011;5558;42.702;23.178;2022-09-09T14:56:30;5.20;;;4.50;;
11010;SDS011;5558;42.702;23.178;2022-09-09T14:58:59;4.83;;;4.17;;
11010;SDS011;5558;42.702;23.178;2022-09-09T15:01:28;9.27;;;4.27;;
11010;SDS011;5558;42.702;23.178;2022-09-09T15:03:57;6.33;;;4.73;;
11010;SDS011;5558;42.702;23.178;2022-09-09T15:06:26;5.23;;;4.73;;
11010;SDS011;5558;42.702;23.178;2022-09-09T15:08:54;6.10;;;4.30;;
11010;SDS011;5558;42.702;23.178;2022-09-09T15:11:23;7.60;;;4.30;;
11010;SDS011;5558;42.702;23.178;2022-09-09T15:13:53;6.20;;;4.43;;
11010;SDS011;5558;42.702;23.178;2022-09-09T15:16:21;7.20;;;4.63;;